Time,TemperatureF,DewpointF,PressureIn,WindDirection,WindDirectionDegrees,WindSpeedMPH,WindSpeedGustMPH,Humidity,HourlyPrecipIn,Conditions,Clouds,dailyrainin,SolarRadiationWatts/m^2,SoftwareType,DateUTC
2013-01-10 00:02:00,30.0,10.0,-100.00,ENE,65,3.0,6.0,42,0.00,,,0.00,0.000000,,2013-01-10 07:02:00,
2013-01-10 00:12:00,30.0,10.0,-100.00,ENE,65,3.0,6.0,42,0.00,,,0.00,0.000000,,2013-01-10 07:12:00,
2013-01-10 00:22:00,30.0,10.0,-100.00,ENE,65,3.0,6.0,42,0.00,,,0.00,0.000000,,2013-01-10 07:22:00,
2013-01-10 00:32:00,30.0,10.0,-100.00,ENE,65,3.0,6.0,42,0.00,,,0.00,0.000000,,2013-01-10 07:32:00,
2013-01-10 00:42:00,30.0,10.0,-100.00,ENE,65,3.0,6.0,42,0.00,,,0.00,0.000000,,2013-01-10 07:42:00,
2013-01-10 01:11:00,31.0,10.0,-100.00,East,79,4.0,6.0,41,0.00,,,0.00,0.000000,,2013-01-10 08:11:00,
2013-01-10 01:22:00,31.0,10.0,-100.00,East,79,4.0,6.0,41,0.00,,,0.00,0.000000,,2013-01-10 08:22:00,
2013-01-10 01:32:00,31.0,10.0,-100.00,East,79,4.0,6.0,41,0.00,,,0.00,0.000000,,2013-01-10 08:32:00,
2013-01-10 01:42:00,31.0,10.0,-100.00,East,79,4.0,6.0,41,0.00,,,0.00,0.000000,,2013-01-10 08:42:00,
2013-01-10 02:02:00,31.0,10.0,-100.00,ENE,65,4.0,7.0,40,0.00,,,0.00,0.000000,,2013-01-10 09:02:00,
2013-01-10 02:12:00,31.0,10.0,-100.00,ENE,65,4.0,7.0,40,0.00,,,0.00,0.000000,,2013-01-10 09:12:00,
2013-01-10 02:22:00,31.0,10.0,-100.00,ENE,65,4.0,7.0,40,0.00,,,0.00,0.000000,,2013-01-10 09:22:00,
2013-01-10 02:32:00,31.0,10.0,-100.00,ENE,65,4.0,7.0,40,0.00,,,0.00,0.000000,,2013-01-10 09:32:00,
2013-01-10 02:42:00,31.0,10.0,-100.00,ENE,65,4.0,7.0,40,0.00,,,0.00,0.000000,,2013-01-10 09:42:00,
2013-01-10 03:02:00,31.0,10.0,-100.00,ENE,58,4.0,5.0,40,0.00,,,0.00,0.000000,,2013-01-10 10:02:00,
2013-01-10 03:12:00,31.0,10.0,-100.00,ENE,58,4.0,5.0,40,0.00,,,0.00,0.000000,,2013-01-10 10:12:00,
2013-01-10 03:22:00,31.0,10.0,-100.00,ENE,58,4.0,5.0,40,0.00,,,0.00,0.000000,,2013-01-10 10:22:00,
2013-01-10 03:32:00,31.0,10.0,-100.00,ENE,58,4.0,5.0,40,0.00,,,0.00,0.000000,,2013-01-10 10:32:00,
2013-01-10 03:42:00,31.0,10.0,-100.00,ENE,58,4.0,5.0,40,0.00,,,0.00,0.000000,,2013-01-10 10:42:00,
2013-01-10 04:02:00,32.0,10.0,-100.00,East,90,5.0,9.0,39,0.00,,,0.00,0.000000,,2013-01-10 11:02:00,
2013-01-10 04:12:00,32.0,10.0,-100.00,East,90,5.0,9.0,39,0.00,,,0.00,0.000000,,2013-01-10 11:12:00,
2013-01-10 04:22:00,32.0,10.0,-100.00,East,90,5.0,9.0,39,0.00,,,0.00,0.000000,,2013-01-10 11:22:00,
2013-01-10 04:32:00,32.0,10.0,-100.00,East,90,5.0,9.0,39,0.00,,,0.00,0.000000,,2013-01-10 11:32:00,
2013-01-10 04:42:00,32.0,10.0,-100.00,East,90,5.0,9.0,39,0.00,,,0.00,0.000000,,2013-01-10 11:42:00,
2013-01-10 05:02:00,32.0,9.0,-100.00,East,87,4.0,8.0,38,0.00,,,0.00,0.000000,,2013-01-10 12:02:00,
2013-01-10 05:12:00,32.0,9.0,-100.00,East,87,4.0,8.0,38,0.00,,,0.00,0.000000,,2013-01-10 12:12:00,
2013-01-10 05:22:00,32.0,9.0,-100.00,East,87,4.0,8.0,38,0.00,,,0.00,0.000000,,2013-01-10 12:22:00,
2013-01-10 05:32:00,32.0,9.0,-100.00,East,87,4.0,8.0,38,0.00,,,0.00,0.000000,,2013-01-10 12:32:00,
2013-01-10 05:42:00,32.0,9.0,-100.00,East,87,4.0,8.0,38,0.00,,,0.00,0.000000,,2013-01-10 12:42:00,
2013-01-10 07:22:00,33.0,9.0,-100.00,ENE,78,6.0,9.0,36,-99.99,,,0.00,0.000000,,2013-01-10 14:22:00,
2013-01-10 07:32:00,33.0,9.0,-100.00,ENE,78,6.0,9.0,36,-99.99,,,0.00,0.000000,,2013-01-10 14:32:00,
2013-01-10 07:43:00,33.0,9.0,-100.00,ENE,78,6.0,9.0,36,-99.99,,,0.00,0.000000,,2013-01-10 14:43:00,
2013-01-10 08:03:00,33.0,8.0,-100.00,East,90,5.0,11.0,35,0.00,,,0.00,0.000000,,2013-01-10 15:03:00,
2013-01-10 08:12:00,33.0,8.0,-100.00,East,90,5.0,11.0,35,0.00,,,0.00,0.000000,,2013-01-10 15:12:00,
2013-01-10 08:22:00,33.0,8.0,-100.00,East,90,5.0,11.0,35,0.00,,,0.00,0.000000,,2013-01-10 15:22:00,
2013-01-10 08:32:00,33.0,8.0,-100.00,East,90,5.0,11.0,35,0.00,,,0.00,0.000000,,2013-01-10 15:32:00,
2013-01-10 08:42:00,33.0,8.0,-100.00,East,90,5.0,11.0,35,0.00,,,0.00,0.000000,,2013-01-10 15:42:00,
2013-01-10 09:12:00,35.0,8.0,-100.00,East,84,4.0,9.0,32,0.00,,,-99.99,32.000000,,2013-01-10 16:12:00,
2013-01-10 09:22:00,35.0,8.0,-100.00,East,84,4.0,9.0,32,0.00,,,-99.99,32.000000,,2013-01-10 16:22:00,
2013-01-10 09:33:00,35.0,8.0,-100.00,East,84,4.0,9.0,32,0.00,,,-99.99,32.000000,,2013-01-10 16:33:00,
2013-01-10 09:42:00,35.0,8.0,-100.00,East,84,4.0,9.0,32,0.00,,,-99.99,32.000000,,2013-01-10 16:42:00,
2013-01-10 10:02:00,38.0,10.0,-100.00,East,98,2.0,11.0,31,0.00,,,0.00,143.000000,,2013-01-10 17:02:00,
2013-01-10 10:12:00,38.0,10.0,-100.00,East,98,2.0,11.0,31,0.00,,,0.00,143.000000,,2013-01-10 17:12:00,
2013-01-10 10:22:00,38.0,10.0,-100.00,East,98,2.0,11.0,31,0.00,,,0.00,143.000000,,2013-01-10 17:22:00,
2013-01-10 10:33:00,38.0,10.0,-100.00,East,98,2.0,11.0,31,0.00,,,0.00,143.000000,,2013-01-10 17:33:00,
2013-01-10 10:42:00,38.0,10.0,-100.00,East,98,2.0,11.0,31,0.00,,,0.00,143.000000,,2013-01-10 17:42:00,
2013-01-10 11:03:00,39.0,12.0,-100.00,ENE,68,1.0,7.0,33,0.00,,,0.00,270.000000,,2013-01-10 18:03:00,
2013-01-10 11:12:00,39.0,12.0,-100.00,ENE,68,1.0,7.0,33,0.00,,,0.00,270.000000,,2013-01-10 18:12:00,
2013-01-10 11:22:00,39.0,12.0,-100.00,ENE,68,1.0,7.0,33,0.00,,,0.00,270.000000,,2013-01-10 18:22:00,
2013-01-10 11:33:00,39.0,12.0,-100.00,ENE,68,1.0,7.0,33,0.00,,,0.00,270.000000,,2013-01-10 18:33:00,
2013-01-10 11:43:00,39.0,12.0,-100.00,ENE,68,1.0,7.0,33,0.00,,,0.00,270.000000,,2013-01-10 18:43:00,
2013-01-10 12:02:00,43.0,11.0,-100.00,SE,139,4.0,7.0,27,0.00,,,0.00,450.000000,,2013-01-10 19:02:00,
2013-01-10 12:23:00,43.0,11.0,-100.00,SE,139,4.0,7.0,27,0.00,,,0.00,450.000000,,2013-01-10 19:23:00,
2013-01-10 12:32:00,43.0,11.0,-100.00,SE,139,4.0,7.0,27,0.00,,,0.00,450.000000,,2013-01-10 19:32:00,
2013-01-10 12:42:00,43.0,11.0,-100.00,SE,139,4.0,7.0,27,0.00,,,0.00,450.000000,,2013-01-10 19:42:00,
2013-01-10 13:02:00,41.0,11.0,-100.00,SE,138,4.0,10.0,29,0.00,,,0.00,219.000000,,2013-01-10 20:02:00,
2013-01-10 13:12:00,41.0,11.0,-100.00,SE,138,4.0,10.0,29,0.00,,,0.00,219.000000,,2013-01-10 20:12:00,
2013-01-10 13:22:00,41.0,11.0,-100.00,SE,138,4.0,10.0,29,0.00,,,0.00,219.000000,,2013-01-10 20:22:00,
2013-01-10 13:32:00,41.0,11.0,-100.00,SE,138,4.0,10.0,29,0.00,,,0.00,219.000000,,2013-01-10 20:32:00,
2013-01-10 13:42:00,41.0,11.0,-100.00,SE,138,4.0,10.0,29,0.00,,,0.00,219.000000,,2013-01-10 20:42:00,
2013-01-10 14:03:00,42.0,10.0,-100.00,SE,133,4.0,11.0,27,0.00,,,0.00,276.000000,,2013-01-10 21:03:00,
2013-01-10 14:12:00,42.0,10.0,-100.00,SE,133,4.0,11.0,27,0.00,,,0.00,276.000000,,2013-01-10 21:12:00,
2013-01-10 14:22:00,42.0,10.0,-100.00,SE,133,4.0,11.0,27,0.00,,,0.00,276.000000,,2013-01-10 21:22:00,
2013-01-10 14:32:00,42.0,10.0,-100.00,SE,133,4.0,11.0,27,0.00,,,0.00,276.000000,,2013-01-10 21:32:00,
2013-01-10 14:42:00,42.0,10.0,-100.00,SE,133,4.0,11.0,27,0.00,,,0.00,276.000000,,2013-01-10 21:42:00,
2013-01-10 15:12:00,42.0,12.0,-100.00,SSE,168,4.0,9.0,29,0.00,,,0.00,167.000000,,2013-01-10 22:12:00,
2013-01-10 15:24:00,42.0,12.0,-100.00,SSE,168,4.0,9.0,29,0.00,,,0.00,167.000000,,2013-01-10 22:24:00,
2013-01-10 15:32:00,42.0,12.0,-100.00,SSE,168,4.0,9.0,29,0.00,,,0.00,167.000000,,2013-01-10 22:32:00,
2013-01-10 15:42:00,42.0,12.0,-100.00,SSE,168,4.0,9.0,29,0.00,,,0.00,167.000000,,2013-01-10 22:42:00,
2013-01-10 16:02:00,40.0,13.0,-100.00,SE,136,7.0,13.0,33,0.00,,,0.00,66.000000,,2013-01-10 23:02:00,
2013-01-10 16:12:00,40.0,13.0,-100.00,SE,136,7.0,13.0,33,0.00,,,0.00,66.000000,,2013-01-10 23:12:00,
2013-01-10 16:22:00,40.0,13.0,-100.00,SE,136,7.0,13.0,33,0.00,,,0.00,66.000000,,2013-01-10 23:22:00,
2013-01-10 16:32:00,40.0,13.0,-100.00,SE,136,7.0,13.0,33,0.00,,,0.00,66.000000,,2013-01-10 23:32:00,
2013-01-10 16:42:00,40.0,13.0,-100.00,SE,136,7.0,13.0,33,0.00,,,0.00,66.000000,,2013-01-10 23:42:00,
2013-01-10 17:02:00,40.0,15.0,-100.00,ESE,122,8.0,17.0,36,0.00,,,0.00,30.000000,,2013-01-11 00:02:00,
2013-01-10 17:12:00,40.0,15.0,-100.00,ESE,122,8.0,17.0,36,0.00,,,0.00,30.000000,,2013-01-11 00:12:00,
2013-01-10 17:23:00,40.0,15.0,-100.00,ESE,122,8.0,17.0,36,0.00,,,0.00,30.000000,,2013-01-11 00:23:00,
2013-01-10 17:32:00,40.0,15.0,-100.00,ESE,122,8.0,17.0,36,0.00,,,0.00,30.000000,,2013-01-11 00:32:00,
2013-01-10 17:42:00,40.0,15.0,-100.00,ESE,122,8.0,17.0,36,0.00,,,0.00,30.000000,,2013-01-11 00:42:00,
2013-01-10 18:02:00,40.0,15.0,-100.00,ESE,118,8.0,16.0,36,0.00,,,0.00,8.000000,,2013-01-11 01:02:00,
2013-01-10 18:12:00,40.0,15.0,-100.00,ESE,118,8.0,16.0,36,0.00,,,0.00,8.000000,,2013-01-11 01:12:00,
2013-01-10 18:22:00,40.0,15.0,-100.00,ESE,118,8.0,16.0,36,0.00,,,0.00,8.000000,,2013-01-11 01:22:00,
2013-01-10 18:33:00,40.0,15.0,-100.00,ESE,118,8.0,16.0,36,0.00,,,0.00,8.000000,,2013-01-11 01:33:00,
2013-01-10 18:42:00,40.0,15.0,-100.00,ESE,118,8.0,16.0,36,0.00,,,0.00,8.000000,,2013-01-11 01:42:00,
2013-01-10 19:02:00,41.0,15.0,-100.00,SSE,147,12.0,23.0,35,0.00,,,0.00,0.000000,,2013-01-11 02:02:00,
2013-01-10 19:12:00,41.0,15.0,-100.00,SSE,147,12.0,23.0,35,0.00,,,0.00,0.000000,,2013-01-11 02:12:00,
2013-01-10 19:22:00,41.0,15.0,-100.00,SSE,147,12.0,23.0,35,0.00,,,0.00,0.000000,,2013-01-11 02:22:00,
2013-01-10 19:32:00,41.0,15.0,-100.00,SSE,147,12.0,23.0,35,0.00,,,0.00,0.000000,,2013-01-11 02:32:00,
2013-01-10 19:42:00,41.0,15.0,-100.00,SSE,147,12.0,23.0,35,0.00,,,0.00,0.000000,,2013-01-11 02:42:00,
2013-01-10 20:12:00,40.0,16.0,-100.00,NE,37,9.0,27.0,38,0.00,,,0.00,0.000000,,2013-01-11 03:12:00,
2013-01-10 20:22:00,40.0,16.0,-100.00,NE,37,9.0,27.0,38,0.00,,,0.00,0.000000,,2013-01-11 03:22:00,
2013-01-10 20:33:00,40.0,16.0,-100.00,NE,37,9.0,27.0,38,0.00,,,0.00,0.000000,,2013-01-11 03:33:00,
2013-01-10 20:42:00,40.0,16.0,-100.00,NE,37,9.0,27.0,38,0.00,,,0.00,0.000000,,2013-01-11 03:42:00,
2013-01-10 21:02:00,39.0,14.0,-100.00,ESE,106,10.0,22.0,36,0.00,,,0.00,0.000000,,2013-01-11 04:02:00,
2013-01-10 21:12:00,39.0,14.0,-100.00,ESE,106,10.0,22.0,36,0.00,,,0.00,0.000000,,2013-01-11 04:12:00,
2013-01-10 21:22:00,39.0,14.0,-100.00,ESE,106,10.0,22.0,36,0.00,,,0.00,0.000000,,2013-01-11 04:22:00,
2013-01-10 21:32:00,39.0,14.0,-100.00,ESE,106,10.0,22.0,36,0.00,,,0.00,0.000000,,2013-01-11 04:32:00,
2013-01-10 21:42:00,39.0,14.0,-100.00,ESE,106,10.0,22.0,36,0.00,,,0.00,0.000000,,2013-01-11 04:42:00,
2013-01-10 22:03:00,40.0,16.0,-100.00,SE,146,13.0,26.0,38,0.00,,,0.00,0.000000,,2013-01-11 05:03:00,
2013-01-10 22:12:00,40.0,16.0,-100.00,SE,146,13.0,26.0,38,0.00,,,0.00,0.000000,,2013-01-11 05:12:00,
2013-01-10 22:22:00,40.0,16.0,-100.00,SE,146,13.0,26.0,38,0.00,,,0.00,0.000000,,2013-01-11 05:22:00,
2013-01-10 22:33:00,40.0,16.0,-100.00,SE,146,13.0,26.0,38,0.00,,,0.00,0.000000,,2013-01-11 05:33:00,
2013-01-10 22:42:00,40.0,16.0,-100.00,SE,146,13.0,26.0,38,0.00,,,0.00,0.000000,,2013-01-11 05:42:00,
2013-01-10 23:02:00,36.0,17.0,-100.00,SSE,147,17.0,32.0,45,0.00,,,0.00,0.000000,,2013-01-11 06:02:00,
2013-01-10 23:12:00,36.0,17.0,-100.00,SSE,147,17.0,32.0,45,0.00,,,0.00,0.000000,,2013-01-11 06:12:00,
2013-01-10 23:22:00,36.0,17.0,-100.00,SSE,147,17.0,32.0,45,0.00,,,0.00,0.000000,,2013-01-11 06:22:00,
2013-01-10 23:32:00,36.0,17.0,-100.00,SSE,147,17.0,32.0,45,0.00,,,0.00,0.000000,,2013-01-11 06:32:00,
2013-01-10 23:42:00,36.0,17.0,-100.00,SSE,147,17.0,32.0,45,0.00,,,0.00,0.000000,,2013-01-11 06:42:00,